Aérodrome :
LOGIN :

S'inscrire | Disclaimer

   EN    FR    IT 

 










Légende :    VFR   VFR Marginal   IFR   IFR Intensif   IFR Très Intensif
Visi : 
Plafond : 
>= 8 km
>= 3000ft
5 à 8 km
1000 à 3000 ft
1500m à 5 km
500 à 1000 ft
800 à 1500m
200 à 500 ft
< 800m
< 200 ft
Symboles :   Orages  Brouillard  Fortes neiges  Fortes précipitations  Vent > 20 kt
SIGMETs :   Divers  Orages  Givrage  Turbulence  Onde Orograph.  Cendres Volcan.






- Altitude de l'aérodrome : 124 ft
- Code IATA : RNS


LFRN - Rennes

DERNIER METAR :
  • 061800Z AUTO 04008KT CAVOK 06/M02 Q1036 NOSIG

METARs EXPIRÉS :
  • 061730Z AUTO 03009KT CAVOK 07/M02 Q1036 NOSIG
  • 061700Z AUTO 04008KT CAVOK 08/M01 Q1036 NOSIG
  • 061630Z AUTO 04010KT CAVOK 09/M01 Q1036 NOSIG
  • 061600Z AUTO 05012KT CAVOK 09/M01 Q1036 NOSIG
  • 061530Z AUTO 04012KT CAVOK 09/M01 Q1037 NOSIG

TAF TAF LFRN
Valide du 06 à 18h jusqu'au 07 à 18h UTC


061700Z 0618/0718 04008KT CAVOK
ATIS : +33 2 99 67 72 50



MET'MAP, la Météo Aéronautique d'un coup d'oeil ! - Copyright ORBIFLY Décembre 2007 - Disclaimer

ORBIFLY MET'MAP TEAM :

Programmation & Développement : Alexandra Zaïnal
Sur une idée originale de : Baudouin d'Aumeries
Soutien technique & logistique : Manuel Goepfert
Assistance : Marc-Olivier Méhu




SOURCES & CREDITS :

   NOAA